sensor_id;sensor_type;location;lat;lon;timestamp;P1;durP1;ratioP1;P2;durP2;ratioP2
46084;SDS011;31823;47.032;8.310;2022-07-18T00:00:03;6.50;;;3.88;;
46084;SDS011;31823;47.032;8.310;2022-07-18T00:02:31;4.63;;;3.65;;
46084;SDS011;31823;47.032;8.310;2022-07-18T00:04:57;6.80;;;3.58;;
46084;SDS011;31823;47.032;8.310;2022-07-18T00:07:22;5.70;;;4.25;;
46084;SDS011;31823;47.032;8.310;2022-07-18T00:09:48;3.80;;;3.35;;
46084;SDS011;31823;47.032;8.310;2022-07-18T00:12:14;4.10;;;3.70;;
46084;SDS011;31823;47.032;8.310;2022-07-18T00:14:39;3.75;;;3.45;;
46084;SDS011;31823;47.032;8.310;2022-07-18T00:17:06;6.85;;;4.03;;
46084;SDS011;31823;47.032;8.310;2022-07-18T00:19:33;7.25;;;4.45;;
46084;SDS011;31823;47.032;8.310;2022-07-18T00:21:59;5.03;;;3.80;;
46084;SDS011;31823;47.032;8.310;2022-07-18T00:24:25;5.38;;;4.53;;
46084;SDS011;31823;47.032;8.310;2022-07-18T00:26:51;4.68;;;4.20;;
46084;SDS011;31823;47.032;8.310;2022-07-18T00:29:17;6.03;;;4.80;;
46084;SDS011;31823;47.032;8.310;2022-07-18T00:31:42;4.35;;;3.95;;
46084;SDS011;31823;47.032;8.310;2022-07-18T00:34:08;5.47;;;4.47;;
46084;SDS011;31823;47.032;8.310;2022-07-18T00:36:34;4.82;;;4.32;;
46084;SDS011;31823;47.032;8.310;2022-07-18T00:38:59;5.53;;;4.00;;
46084;SDS011;31823;47.032;8.310;2022-07-18T00:41:25;8.50;;;3.90;;
46084;SDS011;31823;47.032;8.310;2022-07-18T00:43:51;5.35;;;4.40;;
46084;SDS011;31823;47.032;8.310;2022-07-18T00:46:24;6.50;;;4.10;;
46084;SDS011;31823;47.032;8.310;2022-07-18T00:48:50;5.90;;;4.13;;
46084;SDS011;31823;47.032;8.310;2022-07-18T00:51:17;4.85;;;4.10;;
46084;SDS011;31823;47.032;8.310;2022-07-18T00:53:43;5.93;;;4.57;;
46084;SDS011;31823;47.032;8.310;2022-07-18T00:56:09;5.65;;;4.80;;
46084;SDS011;31823;47.032;8.310;2022-07-18T00:58:36;9.27;;;4.93;;
46084;SDS011;31823;47.032;8.310;2022-07-18T01:01:02;6.55;;;5.07;;
46084;SDS011;31823;47.032;8.310;2022-07-18T01:03:47;8.75;;;4.97;;
46084;SDS011;31823;47.032;8.310;2022-07-18T01:06:15;7.18;;;5.07;;
46084;SDS011;31823;47.032;8.310;2022-07-18T01:08:41;8.68;;;5.78;;
46084;SDS011;31823;47.032;8.310;2022-07-18T01:11:08;10.02;;;5.10;;
46084;SDS011;31823;47.032;8.310;2022-07-18T01:13:34;7.32;;;5.63;;
46084;SDS011;31823;47.032;8.310;2022-07-18T01:16:00;7.78;;;5.25;;
46084;SDS011;31823;47.032;8.310;2022-07-18T01:18:26;6.97;;;4.72;;
46084;SDS011;31823;47.032;8.310;2022-07-18T01:20:52;8.93;;;4.88;;
46084;SDS011;31823;47.032;8.310;2022-07-18T01:23:18;7.75;;;4.95;;
46084;SDS011;31823;47.032;8.310;2022-07-18T01:25:43;6.00;;;5.30;;
46084;SDS011;31823;47.032;8.310;2022-07-18T01:28:09;5.30;;;4.80;;
46084;SDS011;31823;47.032;8.310;2022-07-18T01:30:34;5.40;;;4.50;;
46084;SDS011;31823;47.032;8.310;2022-07-18T01:33:01;5.75;;;4.43;;
46084;SDS011;31823;47.032;8.310;2022-07-18T01:35:28;5.78;;;4.70;;
46084;SDS011;31823;47.032;8.310;2022-07-18T01:37:56;4.88;;;4.35;;
46084;SDS011;31823;47.032;8.310;2022-07-18T01:40:23;5.82;;;4.90;;
46084;SDS011;31823;47.032;8.310;2022-07-18T01:42:49;5.63;;;4.78;;
46084;SDS011;31823;47.032;8.310;2022-07-18T01:45:15;10.07;;;4.90;;
46084;SDS011;31823;47.032;8.310;2022-07-18T01:47:41;5.55;;;4.75;;
46084;SDS011;31823;47.032;8.310;2022-07-18T01:50:07;6.25;;;4.70;;
46084;SDS011;31823;47.032;8.310;2022-07-18T01:52:34;44.78;;;6.65;;
46084;SDS011;31823;47.032;8.310;2022-07-18T01:54:59;6.15;;;4.80;;
46084;SDS011;31823;47.032;8.310;2022-07-18T01:57:25;6.57;;;4.85;;
46084;SDS011;31823;47.032;8.310;2022-07-18T01:59:51;7.45;;;4.25;;
46084;SDS011;31823;47.032;8.310;2022-07-18T02:02:17;5.63;;;5.13;;
46084;SDS011;31823;47.032;8.310;2022-07-18T02:04:43;5.97;;;4.72;;
46084;SDS011;31823;47.032;8.310;2022-07-18T02:07:29;6.15;;;5.35;;
46084;SDS011;31823;47.032;8.310;2022-07-18T02:10:06;8.45;;;5.38;;
46084;SDS011;31823;47.032;8.310;2022-07-18T02:12:33;6.25;;;5.38;;
46084;SDS011;31823;47.032;8.310;2022-07-18T02:14:59;8.80;;;5.25;;
46084;SDS011;31823;47.032;8.310;2022-07-18T02:17:25;4.72;;;4.32;;
46084;SDS011;31823;47.032;8.310;2022-07-18T02:19:50;8.52;;;5.22;;
46084;SDS011;31823;47.032;8.310;2022-07-18T02:22:16;6.80;;;5.32;;
46084;SDS011;31823;47.032;8.310;2022-07-18T02:24:42;6.38;;;4.90;;
46084;SDS011;31823;47.032;8.310;2022-07-18T02:27:08;5.63;;;5.13;;
46084;SDS011;31823;47.032;8.310;2022-07-18T02:29:33;10.75;;;6.03;;
46084;SDS011;31823;47.032;8.310;2022-07-18T02:31:59;7.28;;;5.00;;
46084;SDS011;31823;47.032;8.310;2022-07-18T02:34:24;6.13;;;4.97;;
46084;SDS011;31823;47.032;8.310;2022-07-18T02:36:50;5.72;;;4.68;;
46084;SDS011;31823;47.032;8.310;2022-07-18T02:39:16;6.20;;;5.22;;
46084;SDS011;31823;47.032;8.310;2022-07-18T02:41:42;7.53;;;5.53;;
46084;SDS011;31823;47.032;8.310;2022-07-18T02:44:08;7.40;;;5.85;;
46084;SDS011;31823;47.032;8.310;2022-07-18T02:46:34;9.88;;;5.82;;
46084;SDS011;31823;47.032;8.310;2022-07-18T02:49:00;7.25;;;5.82;;
46084;SDS011;31823;47.032;8.310;2022-07-18T02:51:25;6.10;;;5.50;;
46084;SDS011;31823;47.032;8.310;2022-07-18T02:53:51;9.07;;;7.38;;
46084;SDS011;31823;47.032;8.310;2022-07-18T02:56:17;9.73;;;7.05;;
46084;SDS011;31823;47.032;8.310;2022-07-18T02:58:43;9.15;;;6.15;;
46084;SDS011;31823;47.032;8.310;2022-07-18T03:01:08;7.30;;;6.00;;
46084;SDS011;31823;47.032;8.310;2022-07-18T03:03:34;6.97;;;5.78;;
46084;SDS011;31823;47.032;8.310;2022-07-18T03:06:00;6.18;;;5.30;;
46084;SDS011;31823;47.032;8.310;2022-07-18T03:08:25;6.68;;;5.63;;
46084;SDS011;31823;47.032;8.310;2022-07-18T03:10:51;7.78;;;5.30;;
46084;SDS011;31823;47.032;8.310;2022-07-18T03:13:17;9.60;;;5.93;;
46084;SDS011;31823;47.032;8.310;2022-07-18T03:15:42;8.02;;;6.18;;
46084;SDS011;31823;47.032;8.310;2022-07-18T03:18:08;5.65;;;5.15;;
46084;SDS011;31823;47.032;8.310;2022-07-18T03:20:33;6.65;;;5.57;;
46084;SDS011;31823;47.032;8.310;2022-07-18T03:22:59;7.45;;;5.72;;
46084;SDS011;31823;47.032;8.310;2022-07-18T03:25:30;6.18;;;5.25;;
46084;SDS011;31823;47.032;8.310;2022-07-18T03:27:56;7.72;;;5.72;;
46084;SDS011;31823;47.032;8.310;2022-07-18T03:30:21;8.40;;;5.75;;
46084;SDS011;31823;47.032;8.310;2022-07-18T03:32:47;6.65;;;5.07;;
46084;SDS011;31823;47.032;8.310;2022-07-18T03:35:13;6.50;;;4.88;;
46084;SDS011;31823;47.032;8.310;2022-07-18T03:37:38;8.30;;;5.93;;
46084;SDS011;31823;47.032;8.310;2022-07-18T03:40:04;8.23;;;6.38;;
46084;SDS011;31823;47.032;8.310;2022-07-18T03:42:30;10.07;;;5.72;;
46084;SDS011;31823;47.032;8.310;2022-07-18T03:44:56;9.02;;;5.93;;
46084;SDS011;31823;47.032;8.310;2022-07-18T03:47:21;7.93;;;5.05;;
46084;SDS011;31823;47.032;8.310;2022-07-18T03:49:47;6.45;;;5.20;;
46084;SDS011;31823;47.032;8.310;2022-07-18T03:52:13;6.85;;;5.35;;
46084;SDS011;31823;47.032;8.310;2022-07-18T03:54:38;7.57;;;5.25;;
46084;SDS011;31823;47.032;8.310;2022-07-18T03:57:04;7.50;;;5.72;;
46084;SDS011;31823;47.032;8.310;2022-07-18T03:59:29;7.85;;;6.13;;
46084;SDS011;31823;47.032;8.310;2022-07-18T04:01:55;9.77;;;5.63;;
46084;SDS011;31823;47.032;8.310;2022-07-18T04:04:20;9.23;;;6.03;;
46084;SDS011;31823;47.032;8.310;2022-07-18T04:06:46;11.65;;;5.63;;
46084;SDS011;31823;47.032;8.310;2022-07-18T04:09:12;6.70;;;5.63;;
46084;SDS011;31823;47.032;8.310;2022-07-18T04:11:38;7.43;;;5.57;;
46084;SDS011;31823;47.032;8.310;2022-07-18T04:14:03;8.13;;;5.25;;
46084;SDS011;31823;47.032;8.310;2022-07-18T04:16:29;7.03;;;5.28;;
46084;SDS011;31823;47.032;8.310;2022-07-18T04:18:55;8.13;;;5.43;;
46084;SDS011;31823;47.032;8.310;2022-07-18T04:21:20;5.43;;;4.93;;
46084;SDS011;31823;47.032;8.310;2022-07-18T04:23:46;9.25;;;5.22;;
46084;SDS011;31823;47.032;8.310;2022-07-18T04:26:11;9.15;;;5.63;;
46084;SDS011;31823;47.032;8.310;2022-07-18T04:28:37;7.53;;;5.47;;
46084;SDS011;31823;47.032;8.310;2022-07-18T04:31:02;5.72;;;5.13;;
46084;SDS011;31823;47.032;8.310;2022-07-18T04:33:28;5.78;;;4.93;;
46084;SDS011;31823;47.032;8.310;2022-07-18T04:35:54;5.03;;;4.53;;
46084;SDS011;31823;47.032;8.310;2022-07-18T04:38:19;8.40;;;5.57;;
46084;SDS011;31823;47.032;8.310;2022-07-18T04:40:45;7.55;;;4.72;;
46084;SDS011;31823;47.032;8.310;2022-07-18T04:43:10;6.55;;;5.45;;
46084;SDS011;31823;47.032;8.310;2022-07-18T04:45:36;6.38;;;5.45;;
46084;SDS011;31823;47.032;8.310;2022-07-18T04:48:02;5.97;;;5.18;;
46084;SDS011;31823;47.032;8.310;2022-07-18T04:50:29;6.75;;;5.53;;
46084;SDS011;31823;47.032;8.310;2022-07-18T04:52:55;6.00;;;5.32;;
46084;SDS011;31823;47.032;8.310;2022-07-18T04:55:22;5.93;;;5.25;;
46084;SDS011;31823;47.032;8.310;2022-07-18T04:57:49;6.57;;;5.82;;
46084;SDS011;31823;47.032;8.310;2022-07-18T05:00:17;10.30;;;5.78;;
46084;SDS011;31823;47.032;8.310;2022-07-18T05:02:51;6.20;;;5.60;;
46084;SDS011;31823;47.032;8.310;2022-07-18T05:05:18;7.05;;;5.95;;
46084;SDS011;31823;47.032;8.310;2022-07-18T05:07:45;6.07;;;5.47;;
46084;SDS011;31823;47.032;8.310;2022-07-18T05:10:12;6.22;;;5.65;;
46084;SDS011;31823;47.032;8.310;2022-07-18T05:12:40;6.20;;;5.60;;
46084;SDS011;31823;47.032;8.310;2022-07-18T05:15:08;9.68;;;5.88;;
46084;SDS011;31823;47.032;8.310;2022-07-18T05:17:35;6.65;;;5.45;;
46084;SDS011;31823;47.032;8.310;2022-07-18T05:20:02;6.38;;;5.50;;
46084;SDS011;31823;47.032;8.310;2022-07-18T05:22:29;8.40;;;6.18;;
46084;SDS011;31823;47.032;8.310;2022-07-18T05:24:56;8.57;;;5.97;;
46084;SDS011;31823;47.032;8.310;2022-07-18T05:27:22;8.35;;;6.03;;
46084;SDS011;31823;47.032;8.310;2022-07-18T05:29:47;9.65;;;5.95;;
46084;SDS011;31823;47.032;8.310;2022-07-18T05:32:13;7.78;;;6.00;;
46084;SDS011;31823;47.032;8.310;2022-07-18T05:34:38;9.10;;;6.50;;
46084;SDS011;31823;47.032;8.310;2022-07-18T05:37:04;6.53;;;5.78;;
46084;SDS011;31823;47.032;8.310;2022-07-18T05:39:30;7.45;;;5.72;;
46084;SDS011;31823;47.032;8.310;2022-07-18T05:41:55;7.20;;;6.25;;
46084;SDS011;31823;47.032;8.310;2022-07-18T05:44:21;8.68;;;5.90;;
46084;SDS011;31823;47.032;8.310;2022-07-18T05:46:47;10.00;;;6.43;;
46084;SDS011;31823;47.032;8.310;2022-07-18T05:49:13;7.95;;;5.80;;
46084;SDS011;31823;47.032;8.310;2022-07-18T05:51:39;6.93;;;6.25;;
46084;SDS011;31823;47.032;8.310;2022-07-18T05:54:05;6.82;;;5.80;;
46084;SDS011;31823;47.032;8.310;2022-07-18T05:56:31;7.32;;;5.78;;
46084;SDS011;31823;47.032;8.310;2022-07-18T05:58:57;6.72;;;5.80;;
46084;SDS011;31823;47.032;8.310;2022-07-18T06:01:23;8.75;;;5.88;;
46084;SDS011;31823;47.032;8.310;2022-07-18T06:03:49;6.80;;;5.97;;
46084;SDS011;31823;47.032;8.310;2022-07-18T06:06:15;10.45;;;6.75;;
46084;SDS011;31823;47.032;8.310;2022-07-18T06:08:43;7.18;;;5.65;;
46084;SDS011;31823;47.032;8.310;2022-07-18T06:11:09;9.15;;;5.78;;
46084;SDS011;31823;47.032;8.310;2022-07-18T06:13:36;8.07;;;6.20;;
46084;SDS011;31823;47.032;8.310;2022-07-18T06:16:03;8.50;;;6.07;;
46084;SDS011;31823;47.032;8.310;2022-07-18T06:18:29;6.75;;;5.60;;
46084;SDS011;31823;47.032;8.310;2022-07-18T06:20:55;7.47;;;5.85;;
46084;SDS011;31823;47.032;8.310;2022-07-18T06:23:20;13.13;;;6.80;;
46084;SDS011;31823;47.032;8.310;2022-07-18T06:25:46;6.60;;;5.70;;
46084;SDS011;31823;47.032;8.310;2022-07-18T06:28:11;9.18;;;6.43;;
46084;SDS011;31823;47.032;8.310;2022-07-18T06:30:37;8.63;;;5.68;;
46084;SDS011;31823;47.032;8.310;2022-07-18T06:33:03;6.75;;;5.78;;
46084;SDS011;31823;47.032;8.310;2022-07-18T06:35:31;7.13;;;5.97;;
46084;SDS011;31823;47.032;8.310;2022-07-18T06:37:57;6.63;;;5.60;;
46084;SDS011;31823;47.032;8.310;2022-07-18T06:40:22;8.82;;;5.70;;
46084;SDS011;31823;47.032;8.310;2022-07-18T06:42:50;8.45;;;6.43;;
46084;SDS011;31823;47.032;8.310;2022-07-18T06:45:16;9.18;;;6.22;;
46084;SDS011;31823;47.032;8.310;2022-07-18T06:47:42;7.15;;;5.72;;
46084;SDS011;31823;47.032;8.310;2022-07-18T06:50:07;10.05;;;5.80;;
46084;SDS011;31823;47.032;8.310;2022-07-18T06:52:33;9.63;;;5.80;;
46084;SDS011;31823;47.032;8.310;2022-07-18T06:54:59;12.05;;;6.20;;
46084;SDS011;31823;47.032;8.310;2022-07-18T06:57:26;8.15;;;5.50;;
46084;SDS011;31823;47.032;8.310;2022-07-18T06:59:52;9.93;;;6.15;;
46084;SDS011;31823;47.032;8.310;2022-07-18T07:02:19;7.72;;;5.45;;
46084;SDS011;31823;47.032;8.310;2022-07-18T07:04:44;7.68;;;5.65;;
46084;SDS011;31823;47.032;8.310;2022-07-18T07:07:10;5.95;;;5.40;;
46084;SDS011;31823;47.032;8.310;2022-07-18T07:09:36;10.52;;;5.78;;
46084;SDS011;31823;47.032;8.310;2022-07-18T07:12:01;10.32;;;6.03;;
46084;SDS011;31823;47.032;8.310;2022-07-18T07:14:27;6.72;;;6.07;;
46084;SDS011;31823;47.032;8.310;2022-07-18T07:16:52;10.35;;;6.57;;
46084;SDS011;31823;47.032;8.310;2022-07-18T07:19:18;8.00;;;6.07;;
46084;SDS011;31823;47.032;8.310;2022-07-18T07:21:44;8.23;;;6.32;;
46084;SDS011;31823;47.032;8.310;2022-07-18T07:24:09;6.28;;;5.68;;
46084;SDS011;31823;47.032;8.310;2022-07-18T07:26:35;9.55;;;6.47;;
46084;SDS011;31823;47.032;8.310;2022-07-18T07:29:01;7.15;;;5.38;;
46084;SDS011;31823;47.032;8.310;2022-07-18T07:31:26;6.55;;;5.40;;
46084;SDS011;31823;47.032;8.310;2022-07-18T07:33:52;6.20;;;5.60;;
46084;SDS011;31823;47.032;8.310;2022-07-18T07:36:18;5.93;;;5.32;;
46084;SDS011;31823;47.032;8.310;2022-07-18T07:38:43;6.97;;;5.85;;
46084;SDS011;31823;47.032;8.310;2022-07-18T07:41:09;7.45;;;6.38;;
46084;SDS011;31823;47.032;8.310;2022-07-18T07:43:38;7.00;;;5.85;;
46084;SDS011;31823;47.032;8.310;2022-07-18T07:46:04;9.13;;;5.90;;
46084;SDS011;31823;47.032;8.310;2022-07-18T07:48:29;7.43;;;5.65;;
46084;SDS011;31823;47.032;8.310;2022-07-18T07:50:55;6.60;;;5.88;;
46084;SDS011;31823;47.032;8.310;2022-07-18T07:53:21;8.23;;;5.97;;
46084;SDS011;31823;47.032;8.310;2022-07-18T07:55:47;6.38;;;5.78;;
46084;SDS011;31823;47.032;8.310;2022-07-18T07:58:12;9.10;;;5.63;;
46084;SDS011;31823;47.032;8.310;2022-07-18T08:00:38;6.38;;;5.30;;
46084;SDS011;31823;47.032;8.310;2022-07-18T08:03:05;7.88;;;6.10;;
46084;SDS011;31823;47.032;8.310;2022-07-18T08:05:33;7.50;;;5.45;;
46084;SDS011;31823;47.032;8.310;2022-07-18T08:08:00;6.00;;;5.40;;
46084;SDS011;31823;47.032;8.310;2022-07-18T08:10:26;6.90;;;5.05;;
46084;SDS011;31823;47.032;8.310;2022-07-18T08:12:53;7.03;;;5.88;;
46084;SDS011;31823;47.032;8.310;2022-07-18T08:15:19;7.43;;;5.38;;
46084;SDS011;31823;47.032;8.310;2022-07-18T08:17:45;9.20;;;5.80;;
46084;SDS011;31823;47.032;8.310;2022-07-18T08:20:10;8.18;;;5.35;;
46084;SDS011;31823;47.032;8.310;2022-07-18T08:22:50;7.60;;;5.38;;
46084;SDS011;31823;47.032;8.310;2022-07-18T08:25:18;7.25;;;5.32;;
46084;SDS011;31823;47.032;8.310;2022-07-18T08:27:44;8.63;;;5.90;;
46084;SDS011;31823;47.032;8.310;2022-07-18T08:30:09;8.43;;;5.53;;
46084;SDS011;31823;47.032;8.310;2022-07-18T08:32:35;7.38;;;5.47;;
46084;SDS011;31823;47.032;8.310;2022-07-18T08:35:01;6.68;;;5.30;;
46084;SDS011;31823;47.032;8.310;2022-07-18T08:37:27;7.07;;;5.20;;
46084;SDS011;31823;47.032;8.310;2022-07-18T08:39:52;9.45;;;5.20;;
46084;SDS011;31823;47.032;8.310;2022-07-18T08:42:18;6.40;;;4.85;;
46084;SDS011;31823;47.032;8.310;2022-07-18T08:44:50;5.47;;;4.97;;
46084;SDS011;31823;47.032;8.310;2022-07-18T08:47:17;5.60;;;5.05;;
46084;SDS011;31823;47.032;8.310;2022-07-18T08:49:44;6.47;;;4.90;;
46084;SDS011;31823;47.032;8.310;2022-07-18T08:52:10;5.75;;;5.13;;
46084;SDS011;31823;47.032;8.310;2022-07-18T08:54:36;5.50;;;4.97;;
46084;SDS011;31823;47.032;8.310;2022-07-18T08:57:02;6.32;;;4.93;;
46084;SDS011;31823;47.032;8.310;2022-07-18T08:59:27;6.13;;;5.50;;
46084;SDS011;31823;47.032;8.310;2022-07-18T09:01:53;6.57;;;5.45;;
46084;SDS011;31823;47.032;8.310;2022-07-18T09:04:38;7.05;;;6.18;;
46084;SDS011;31823;47.032;8.310;2022-07-18T09:07:06;8.65;;;5.95;;
46084;SDS011;31823;47.032;8.310;2022-07-18T09:09:33;10.93;;;6.05;;
46084;SDS011;31823;47.032;8.310;2022-07-18T09:12:00;8.00;;;5.30;;
46084;SDS011;31823;47.032;8.310;2022-07-18T09:14:36;7.88;;;6.03;;
46084;SDS011;31823;47.032;8.310;2022-07-18T09:17:08;7.93;;;6.20;;
46084;SDS011;31823;47.032;8.310;2022-07-18T09:19:38;6.78;;;5.55;;
46084;SDS011;31823;47.032;8.310;2022-07-18T09:27:22;7.57;;;5.68;;
46084;SDS011;31823;47.032;8.310;2022-07-18T09:29:49;7.57;;;5.85;;
46084;SDS011;31823;47.032;8.310;2022-07-18T09:32:36;7.28;;;5.65;;
46084;SDS011;31823;47.032;8.310;2022-07-18T09:37:32;6.78;;;5.80;;
46084;SDS011;31823;47.032;8.310;2022-07-18T09:40:17;6.00;;;5.47;;
46084;SDS011;31823;47.032;8.310;2022-07-18T09:42:51;8.57;;;6.25;;
46084;SDS011;31823;47.032;8.310;2022-07-18T09:45:26;7.25;;;6.32;;
46084;SDS011;31823;47.032;8.310;2022-07-18T09:48:06;6.78;;;6.18;;
46084;SDS011;31823;47.032;8.310;2022-07-18T09:50:35;8.43;;;6.65;;
46084;SDS011;31823;47.032;8.310;2022-07-18T09:53:22;8.68;;;6.30;;
46084;SDS011;31823;47.032;8.310;2022-07-18T09:55:51;9.20;;;6.53;;
46084;SDS011;31823;47.032;8.310;2022-07-18T09:58:22;9.60;;;6.65;;
46084;SDS011;31823;47.032;8.310;2022-07-18T10:00:50;7.20;;;5.72;;
46084;SDS011;31823;47.032;8.310;2022-07-18T10:03:16;10.15;;;6.32;;
46084;SDS011;31823;47.032;8.310;2022-07-18T10:05:44;7.05;;;6.35;;
46084;SDS011;31823;47.032;8.310;2022-07-18T10:08:12;8.82;;;6.45;;
46084;SDS011;31823;47.032;8.310;2022-07-18T10:10:39;9.13;;;6.30;;
46084;SDS011;31823;47.032;8.310;2022-07-18T10:13:06;10.80;;;6.50;;
46084;SDS011;31823;47.032;8.310;2022-07-18T10:15:34;8.02;;;6.53;;
46084;SDS011;31823;47.032;8.310;2022-07-18T10:18:01;9.23;;;6.95;;
46084;SDS011;31823;47.032;8.310;2022-07-18T10:20:31;8.32;;;6.63;;
46084;SDS011;31823;47.032;8.310;2022-07-18T10:25:40;9.40;;;6.30;;
46084;SDS011;31823;47.032;8.310;2022-07-18T10:28:07;10.38;;;6.20;;
46084;SDS011;31823;47.032;8.310;2022-07-18T10:30:47;6.90;;;5.95;;
46084;SDS011;31823;47.032;8.310;2022-07-18T10:36:06;7.45;;;5.88;;
46084;SDS011;31823;47.032;8.310;2022-07-18T10:38:33;6.80;;;6.05;;
46084;SDS011;31823;47.032;8.310;2022-07-18T10:45:56;6.10;;;5.50;;
46084;SDS011;31823;47.032;8.310;2022-07-18T10:59:17;5.60;;;4.87;;
46084;SDS011;31823;47.032;8.310;2022-07-18T11:01:48;5.72;;;5.13;;
46084;SDS011;31823;47.032;8.310;2022-07-18T11:04:22;5.63;;;4.93;;
46084;SDS011;31823;47.032;8.310;2022-07-18T11:22:58;12.17;;;5.27;;
46084;SDS011;31823;47.032;8.310;2022-07-18T11:25:28;4.82;;;4.18;;
46084;SDS011;31823;47.032;8.310;2022-07-18T11:27:54;5.47;;;4.47;;
46084;SDS011;31823;47.032;8.310;2022-07-18T11:30:21;7.97;;;4.60;;
46084;SDS011;31823;47.032;8.310;2022-07-18T11:32:48;6.07;;;3.88;;
46084;SDS011;31823;47.032;8.310;2022-07-18T11:35:14;8.60;;;4.03;;
46084;SDS011;31823;47.032;8.310;2022-07-18T11:37:48;6.47;;;3.90;;
46084;SDS011;31823;47.032;8.310;2022-07-18T11:40:15;4.93;;;4.22;;
46084;SDS011;31823;47.032;8.310;2022-07-18T11:42:42;5.60;;;4.18;;
46084;SDS011;31823;47.032;8.310;2022-07-18T11:45:09;5.43;;;3.60;;
46084;SDS011;31823;47.032;8.310;2022-07-18T11:47:47;4.63;;;3.70;;
46084;SDS011;31823;47.032;8.310;2022-07-18T11:50:17;4.32;;;3.28;;
46084;SDS011;31823;47.032;8.310;2022-07-18T11:52:55;5.95;;;3.80;;
46084;SDS011;31823;47.032;8.310;2022-07-18T11:55:31;4.15;;;3.67;;
46084;SDS011;31823;47.032;8.310;2022-07-18T11:58:11;4.63;;;3.30;;
46084;SDS011;31823;47.032;8.310;2022-07-18T12:00:38;4.28;;;3.67;;
46084;SDS011;31823;47.032;8.310;2022-07-18T12:03:08;8.10;;;3.95;;
46084;SDS011;31823;47.032;8.310;2022-07-18T12:05:38;6.53;;;3.78;;
46084;SDS011;31823;47.032;8.310;2022-07-18T12:11:02;4.22;;;3.40;;
46084;SDS011;31823;47.032;8.310;2022-07-18T12:18:55;7.25;;;3.78;;
46084;SDS011;31823;47.032;8.310;2022-07-18T12:21:22;3.90;;;3.55;;
46084;SDS011;31823;47.032;8.310;2022-07-18T12:23:48;4.35;;;3.40;;
46084;SDS011;31823;47.032;8.310;2022-07-18T12:26:35;4.63;;;3.60;;
46084;SDS011;31823;47.032;8.310;2022-07-18T12:29:06;9.40;;;4.75;;
46084;SDS011;31823;47.032;8.310;2022-07-18T12:31:51;5.47;;;3.80;;
46084;SDS011;31823;47.032;8.310;2022-07-18T12:34:16;8.00;;;3.42;;
46084;SDS011;31823;47.032;8.310;2022-07-18T12:36:55;6.28;;;3.90;;
46084;SDS011;31823;47.032;8.310;2022-07-18T12:39:27;9.05;;;4.00;;
46084;SDS011;31823;47.032;8.310;2022-07-18T12:41:55;4.07;;;3.30;;
46084;SDS011;31823;47.032;8.310;2022-07-18T12:44:20;4.15;;;3.40;;
46084;SDS011;31823;47.032;8.310;2022-07-18T12:46:46;4.97;;;3.72;;
46084;SDS011;31823;47.032;8.310;2022-07-18T12:49:12;5.13;;;3.53;;
46084;SDS011;31823;47.032;8.310;2022-07-18T12:51:38;4.47;;;3.80;;
46084;SDS011;31823;47.032;8.310;2022-07-18T12:54:03;3.95;;;3.05;;
46084;SDS011;31823;47.032;8.310;2022-07-18T12:56:29;4.25;;;3.35;;
46084;SDS011;31823;47.032;8.310;2022-07-18T12:58:54;4.43;;;2.90;;
46084;SDS011;31823;47.032;8.310;2022-07-18T13:01:20;8.38;;;2.92;;
46084;SDS011;31823;47.032;8.310;2022-07-18T13:03:46;5.40;;;2.67;;
46084;SDS011;31823;47.032;8.310;2022-07-18T13:06:12;3.28;;;2.70;;
46084;SDS011;31823;47.032;8.310;2022-07-18T13:08:37;4.18;;;2.90;;
46084;SDS011;31823;47.032;8.310;2022-07-18T13:11:03;3.03;;;2.60;;
46084;SDS011;31823;47.032;8.310;2022-07-18T13:13:28;4.55;;;2.50;;
46084;SDS011;31823;47.032;8.310;2022-07-18T13:15:54;2.90;;;2.55;;
46084;SDS011;31823;47.032;8.310;2022-07-18T13:18:19;3.47;;;2.80;;
46084;SDS011;31823;47.032;8.310;2022-07-18T13:20:45;2.90;;;2.17;;
46084;SDS011;31823;47.032;8.310;2022-07-18T13:23:11;5.85;;;2.45;;
46084;SDS011;31823;47.032;8.310;2022-07-18T13:25:39;4.25;;;2.28;;
46084;SDS011;31823;47.032;8.310;2022-07-18T13:28:04;3.28;;;2.30;;
46084;SDS011;31823;47.032;8.310;2022-07-18T13:30:30;3.08;;;2.40;;
46084;SDS011;31823;47.032;8.310;2022-07-18T13:32:55;3.30;;;2.65;;
46084;SDS011;31823;47.032;8.310;2022-07-18T13:35:21;5.15;;;2.85;;
46084;SDS011;31823;47.032;8.310;2022-07-18T13:37:46;2.92;;;2.72;;
46084;SDS011;31823;47.032;8.310;2022-07-18T13:40:13;4.82;;;2.88;;
46084;SDS011;31823;47.032;8.310;2022-07-18T13:42:39;3.95;;;2.92;;
46084;SDS011;31823;47.032;8.310;2022-07-18T13:45:05;3.80;;;2.70;;
46084;SDS011;31823;47.032;8.310;2022-07-18T13:47:31;8.95;;;2.85;;
46084;SDS011;31823;47.032;8.310;2022-07-18T13:49:57;3.22;;;2.45;;
46084;SDS011;31823;47.032;8.310;2022-07-18T13:52:23;6.88;;;2.38;;
46084;SDS011;31823;47.032;8.310;2022-07-18T13:54:49;2.78;;;2.53;;
46084;SDS011;31823;47.032;8.310;2022-07-18T13:57:16;3.63;;;2.58;;
46084;SDS011;31823;47.032;8.310;2022-07-18T13:59:41;3.15;;;2.63;;
46084;SDS011;31823;47.032;8.310;2022-07-18T14:02:07;5.63;;;2.13;;
46084;SDS011;31823;47.032;8.310;2022-07-18T14:04:33;3.05;;;2.60;;
46084;SDS011;31823;47.032;8.310;2022-07-18T14:06:58;3.63;;;2.42;;
46084;SDS011;31823;47.032;8.310;2022-07-18T14:09:24;7.30;;;2.67;;
46084;SDS011;31823;47.032;8.310;2022-07-18T14:11:49;3.80;;;2.42;;
46084;SDS011;31823;47.032;8.310;2022-07-18T14:14:15;6.30;;;2.58;;
46084;SDS011;31823;47.032;8.310;2022-07-18T14:16:41;4.75;;;2.70;;
46084;SDS011;31823;47.032;8.310;2022-07-18T14:19:06;5.32;;;2.83;;
46084;SDS011;31823;47.032;8.310;2022-07-18T14:21:32;4.43;;;2.40;;
46084;SDS011;31823;47.032;8.310;2022-07-18T14:23:57;3.33;;;2.28;;
46084;SDS011;31823;47.032;8.310;2022-07-18T14:26:23;5.53;;;2.53;;
46084;SDS011;31823;47.032;8.310;2022-07-18T14:28:50;4.65;;;2.15;;
46084;SDS011;31823;47.032;8.310;2022-07-18T14:31:16;4.07;;;2.05;;
46084;SDS011;31823;47.032;8.310;2022-07-18T14:33:42;4.05;;;2.15;;
46084;SDS011;31823;47.032;8.310;2022-07-18T14:36:07;5.70;;;2.22;;
46084;SDS011;31823;47.032;8.310;2022-07-18T14:38:33;5.05;;;2.03;;
46084;SDS011;31823;47.032;8.310;2022-07-18T14:40:59;6.00;;;2.20;;
46084;SDS011;31823;47.032;8.310;2022-07-18T14:43:24;2.97;;;2.05;;
46084;SDS011;31823;47.032;8.310;2022-07-18T14:45:50;3.83;;;2.70;;
46084;SDS011;31823;47.032;8.310;2022-07-18T14:48:17;3.65;;;2.35;;
46084;SDS011;31823;47.032;8.310;2022-07-18T14:50:42;2.90;;;2.25;;
46084;SDS011;31823;47.032;8.310;2022-07-18T14:53:08;3.17;;;2.30;;
46084;SDS011;31823;47.032;8.310;2022-07-18T14:55:34;2.50;;;2.30;;
46084;SDS011;31823;47.032;8.310;2022-07-18T14:57:59;4.80;;;2.00;;
46084;SDS011;31823;47.032;8.310;2022-07-18T15:00:27;2.30;;;2.10;;
46084;SDS011;31823;47.032;8.310;2022-07-18T15:02:53;3.65;;;2.42;;
46084;SDS011;31823;47.032;8.310;2022-07-18T15:05:19;7.38;;;2.60;;
46084;SDS011;31823;47.032;8.310;2022-07-18T15:07:44;4.13;;;3.00;;
46084;SDS011;31823;47.032;8.310;2022-07-18T15:10:11;2.95;;;2.50;;
46084;SDS011;31823;47.032;8.310;2022-07-18T15:12:37;3.42;;;2.22;;
46084;SDS011;31823;47.032;8.310;2022-07-18T15:15:03;2.70;;;2.50;;
46084;SDS011;31823;47.032;8.310;2022-07-18T15:17:30;3.10;;;2.17;;
46084;SDS011;31823;47.032;8.310;2022-07-18T15:19:55;3.65;;;2.30;;
46084;SDS011;31823;47.032;8.310;2022-07-18T15:22:21;6.80;;;2.60;;
46084;SDS011;31823;47.032;8.310;2022-07-18T15:24:47;3.80;;;2.60;;
46084;SDS011;31823;47.032;8.310;2022-07-18T15:27:13;3.67;;;2.30;;
46084;SDS011;31823;47.032;8.310;2022-07-18T15:29:38;6.35;;;2.65;;
46084;SDS011;31823;47.032;8.310;2022-07-18T15:32:04;2.47;;;2.10;;
46084;SDS011;31823;47.032;8.310;2022-07-18T15:34:34;5.18;;;2.20;;
46084;SDS011;31823;47.032;8.310;2022-07-18T15:37:00;4.10;;;2.35;;
46084;SDS011;31823;47.032;8.310;2022-07-18T15:39:26;3.33;;;2.35;;